Aérodrome :
LOGIN :

S'inscrire | Disclaimer

   EN    FR    IT 

 










Légende :    VFR   VFR Marginal   IFR   IFR Intensif   IFR Très Intensif
Visi : 
Plafond : 
>= 8 km
>= 3000ft
5 à 8 km
1000 à 3000 ft
1500m à 5 km
500 à 1000 ft
800 à 1500m
200 à 500 ft
< 800m
< 200 ft
Symboles :   Orages  Brouillard  Fortes neiges  Fortes précipitations  Vent > 20 kt
SIGMETs :   Divers  Orages  Givrage  Turbulence  Onde Orograph.  Cendres Volcan.






- Altitude de l'aérodrome : 8 ft
- Code IATA : PSD


HEPS - Port Said

DERNIER METAR :
  • 151600Z 16005KT 9999 SCT025 15/10 Q1016 NOSIG

METARs EXPIRÉS :
  • 151500Z 18005KT 9999 SCT025 16/10 Q1015 NOSIG
  • 151400Z 18005KT 9999 SCT025 16/10 Q1015 NOSIG
  • 151300Z 16007KT 9999 SCT025 17/08 Q1014 NOSIG

TAF TAF HEPS
Valide du 15 à 12h jusqu'au 16 à 18h UTC


151100Z 1512/1618 20012KT 9999 SCT020 SCT025
TEMPO 1512/1516 4000 TSSHRA SCT020CB BKN070
BECMG 1604/1606 03009KT



MET'MAP, la Météo Aéronautique d'un coup d'oeil ! - Copyright ORBIFLY Décembre 2007 - Disclaimer

ORBIFLY MET'MAP TEAM :

Programmation & Développement : Alexandra Zaïnal
Sur une idée originale de : Baudouin d'Aumeries
Assistance à la programmation : Marc-Olivier Méhu
Soutien technique & logistique : Manuel Goepfert

Contact : metmap@orbifly.com




SOURCES & CREDITS :

   NOAA